Terminal Aerodrome Forecast
Issued by NWS Pittsburgh, PA

Current Version | Previous Version | Graphics & Text | Print | Product List | Glossary On
Versions: 1 2 3 4 5 6 7 8 9 10 11 12 13 14 15 16 17 18 19 20 21 22 23 24 25 26 27 28 29 30 31 32 33 34
000
FTUS41 KPBZ 151400 AAB
TAFPIT
TAF AMD
KPIT 151458Z 1515/1618 00000KT 1SM BR OVC003
     FM151600 14003KT 2SM BR OVC006
     FM151900 13005KT 5SM HZ BKN015
     FM160200 13005KT P6SM BKN250
     FM160900 13007KT 5SM -SHRA OVC030=

USA.gov is the U.S. government's official web portal to all federal, state and local government web resources and services.